Time;durP1;ratioP1;P1;durP2;ratioP2;P2;SDS_P1;SDS_P2;PMS_P1;PMS_P2;Temp;Humidity;BMP_temperature;BMP_pressure;BME280_temperature;BME280_humidity;BME280_pressure;Samples;Min_cycle;Max_cycle;Signal;HPM_P1;HPM_P2
2023/09/07 08:11:39;;;;;;;5.10;2.70;;;;;;;26.32;49.49;101343.34;5416523;23;20045;-80
2023/09/07 08:14:08;;;;;;;7.05;2.85;;;;;;;26.53;50.21;101349.38;4898399;29;20071;-80
2023/09/07 08:16:37;;;;;;;3.10;2.80;;;;;;;26.47;48.50;101352.84;4880366;29;20056;-79
2023/09/07 08:19:06;;;;;;;4.53;2.60;;;;;;;26.59;49.62;101352.69;4898706;29;20060;-81
2023/09/07 08:21:35;;;;;;;3.70;2.90;;;;;;;26.77;49.25;101355.00;4881539;29;20127;-80
2023/09/07 08:24:04;;;;;;;4.20;2.83;;;;;;;26.82;48.86;101351.88;4898210;29;20056;-81
2023/09/07 08:26:32;;;;;;;5.10;2.80;;;;;;;26.82;48.65;101349.06;4898333;29;20052;-81
2023/09/07 08:29:05;;;;;;;4.65;2.83;;;;;;;26.82;48.03;101346.28;4899107;29;20053;-80
2023/09/07 08:31:34;;;;;;;5.97;3.13;;;;;;;26.92;48.66;101350.47;4898991;29;20048;-81
2023/09/07 08:34:05;;;;;;;4.45;2.92;;;;;;;27.12;47.63;101356.03;4899090;29;20304;-81
2023/09/07 08:36:34;;;;;;;3.92;2.58;;;;;;;27.30;46.61;101354.31;4898392;29;20044;-81
2023/09/07 08:39:10;;;;;;;3.08;2.70;;;;;;;27.30;46.44;101345.06;4897662;29;20411;-82
2023/09/07 08:41:43;;;;;;;4.65;2.67;;;;;;;27.30;44.72;101345.91;4897632;29;20068;-81
2023/09/07 08:44:29;;;;;;;3.45;2.83;;;;;;;27.40;45.20;101347.25;4896191;29;20052;-79
2023/09/07 08:47:00;;;;;;;2.90;2.53;;;;;;;27.54;43.84;101351.44;4896706;29;20045;-81
2023/09/07 08:49:29;;;;;;;5.43;2.67;;;;;;;27.34;43.92;101355.19;4895298;29;20400;-80
2023/09/07 08:51:59;;;;;;;2.75;2.55;;;;;;;27.41;44.00;101359.31;4896317;29;20439;-80
2023/09/07 08:54:28;;;;;;;2.72;2.33;;;;;;;27.40;43.82;101357.66;4885907;29;20044;-79
2023/09/07 08:56:58;;;;;;;2.78;2.58;;;;;;;27.53;43.60;101364.72;4895732;29;20060;-77
2023/09/07 08:59:26;;;;;;;3.08;2.53;;;;;;;27.55;43.19;101365.13;4871533;29;20404;-80
2023/09/07 09:02:00;;;;;;;2.58;2.38;;;;;;;27.68;42.61;101357.31;4897244;29;20056;-83
2023/09/07 09:04:30;;;;;;;3.05;2.50;;;;;;;27.81;41.80;101346.63;4896723;29;20055;-83
2023/09/07 09:07:00;;;;;;;3.28;2.70;;;;;;;27.80;42.37;101353.47;4895120;29;20045;-82
2023/09/07 09:09:30;;;;;;;3.38;3.08;;;;;;;27.93;43.38;101356.03;4896394;29;20052;-78
2023/09/07 09:12:10;;;;;;;3.85;2.80;;;;;;;28.02;41.71;101365.00;4896578;29;20055;-80
2023/09/07 09:14:45;;;;;;;4.18;2.25;;;;;;;28.10;40.96;101355.44;4896615;29;20060;-80
2023/09/07 09:17:14;;;;;;;4.78;2.80;;;;;;;28.08;42.26;101357.03;4896419;29;20056;-79
2023/09/07 09:19:43;;;;;;;5.93;3.22;;;;;;;28.17;42.25;101351.94;4896205;29;20048;-78
2023/09/07 09:22:12;;;;;;;3.38;3.00;;;;;;;28.16;41.90;101353.91;4897392;29;20067;-80
2023/09/07 09:24:40;;;;;;;3.25;2.95;;;;;;;28.15;41.81;101343.06;4892442;29;20056;-79
2023/09/07 09:27:09;;;;;;;2.90;2.60;;;;;;;28.24;40.77;101337.16;4892436;29;20148;-81
2023/09/07 09:29:37;;;;;;;3.63;3.10;;;;;;;28.31;40.71;101348.50;4878447;29;20041;-79
2023/09/07 09:32:10;;;;;;;4.40;2.70;;;;;;;28.41;40.76;101358.25;4876732;29;20064;-79
2023/09/07 09:34:38;;;;;;;3.10;2.55;;;;;;;28.34;39.79;101342.09;4878407;29;20061;-80
2023/09/07 09:37:14;;;;;;;3.50;2.95;;;;;;;28.32;39.93;101347.31;4878453;29;20049;-80
2023/09/07 09:39:43;;;;;;;3.28;2.75;;;;;;;28.55;41.51;101340.72;4878359;29;20060;-80
2023/09/07 09:42:13;;;;;;;3.40;2.58;;;;;;;28.49;40.77;101331.78;4876900;29;20053;-80
2023/09/07 09:44:44;;;;;;;7.47;2.60;;;;;;;28.63;40.81;101338.78;4878749;29;20049;-80
2023/09/07 09:47:13;;;;;;;2.70;2.50;;;;;;;28.59;40.56;101335.13;4894124;29;20053;-80
2023/09/07 09:49:42;;;;;;;3.67;2.40;;;;;;;28.76;40.34;101336.47;4896206;29;20052;-79
2023/09/07 09:52:12;;;;;;;3.13;2.80;;;;;;;28.63;40.29;101342.38;4894113;29;20594;-79
2023/09/07 09:54:43;;;;;;;4.07;2.38;;;;;;;28.57;40.19;101341.94;4896044;29;20823;-78
2023/09/07 09:57:13;;;;;;;3.22;2.75;;;;;;;28.57;39.24;101339.13;4896103;29;20057;-80
2023/09/07 09:59:44;;;;;;;2.97;2.47;;;;;;;28.59;39.42;101337.94;4877015;29;20056;-81
2023/09/07 10:02:12;;;;;;;3.13;2.60;;;;;;;28.64;40.47;101332.75;4884309;29;20052;-81
2023/09/07 10:04:40;;;;;;;5.88;2.58;;;;;;;28.51;40.16;101328.59;4893957;29;20040;-81
2023/09/07 10:07:09;;;;;;;2.85;2.22;;;;;;;28.72;39.85;101322.38;4896410;29;20075;-79
2023/09/07 10:09:38;;;;;;;3.25;2.95;;;;;;;28.78;39.78;101331.28;4895636;29;20044;-80
2023/09/07 10:12:12;;;;;;;3.05;2.72;;;;;;;28.82;39.49;101326.47;4875635;29;20080;-80
2023/09/07 10:14:50;;;;;;;3.03;2.33;;;;;;;28.93;39.85;101324.59;4877789;29;20053;-81
2023/09/07 10:17:22;;;;;;;4.18;2.58;;;;;;;28.92;39.48;101320.16;4881002;29;20061;-79
2023/09/07 10:20:05;;;;;;;2.65;2.45;;;;;;;28.92;39.08;101313.69;4878016;29;20326;-79
2023/09/07 10:22:33;;;;;;;3.08;2.50;;;;;;;29.01;39.15;101316.19;4875480;29;20067;-81
2023/09/07 10:25:01;;;;;;;3.10;2.67;;;;;;;28.93;39.04;101318.94;4864193;29;20078;-78
2023/09/07 10:27:39;;;;;;;2.78;2.53;;;;;;;28.80;38.67;101301.53;4878234;29;20083;-79
2023/09/07 10:30:12;;;;;;;3.25;2.88;;;;;;;28.99;39.51;101301.69;4877702;29;20068;-80
2023/09/07 10:32:41;;;;;;;2.80;2.38;;;;;;;29.07;39.28;101303.34;4876822;29;20057;-78
2023/09/07 10:35:18;;;;;;;3.90;2.78;;;;;;;29.15;39.60;101288.13;4877596;29;20053;-78
2023/09/07 10:37:47;;;;;;;3.58;2.80;;;;;;;29.22;39.08;101298.63;4877645;29;20056;-80
2023/09/07 10:40:22;;;;;;;3.03;2.55;;;;;;;29.26;39.89;101299.47;4877356;29;20053;-80
2023/09/07 10:43:01;;;;;;;4.43;2.33;;;;;;;29.27;38.00;101294.66;4877122;29;20061;-81
2023/09/07 10:45:29;;;;;;;3.15;2.50;;;;;;;29.33;38.95;101288.22;4874851;29;20064;-79
2023/09/07 10:47:58;;;;;;;3.10;2.80;;;;;;;29.57;38.19;101285.19;4878434;29;20041;-78
2023/09/07 10:50:27;;;;;;;2.78;2.47;;;;;;;29.49;38.13;101285.16;4879272;29;20056;-82
2023/09/07 10:52:55;;;;;;;2.42;2.22;;;;;;;29.48;37.69;101285.53;4878448;29;20072;-79
2023/09/07 10:55:27;;;;;;;3.90;2.70;;;;;;;29.57;38.64;101279.53;4876458;29;20049;-80
2023/09/07 10:57:57;;;;;;;3.58;2.75;;;;;;;29.55;38.88;101279.13;4877524;29;20608;-81
2023/09/07 11:00:25;;;;;;;3.47;2.45;;;;;;;29.64;38.58;101280.41;4876317;29;20053;-80
2023/09/07 11:02:54;;;;;;;3.65;2.60;;;;;;;29.57;38.04;101283.16;4875433;29;20404;-80
2023/09/07 11:05:22;;;;;;;2.45;2.25;;;;;;;29.43;38.11;101269.78;4876638;29;20049;-78
2023/09/07 11:07:51;;;;;;;3.05;2.60;;;;;;;29.65;38.14;101272.72;4875680;29;20432;-81
2023/09/07 11:10:20;;;;;;;5.68;2.92;;;;;;;29.56;37.39;101264.63;4874016;29;20072;-81
2023/09/07 11:12:49;;;;;;;2.60;2.40;;;;;;;29.76;38.13;101265.13;4881157;29;20053;-81
2023/09/07 11:15:19;;;;;;;3.15;2.78;;;;;;;29.96;38.38;101259.13;4876043;29;20084;-81
2023/09/07 11:17:48;;;;;;;2.92;2.67;;;;;;;30.04;37.23;101269.25;4875511;29;20053;-79
2023/09/07 11:20:16;;;;;;;3.20;2.28;;;;;;;29.99;37.25;101266.81;4876532;29;20155;-79
2023/09/07 11:22:45;;;;;;;4.28;2.72;;;;;;;30.03;36.54;101259.16;4878677;29;20057;-80
2023/09/07 11:25:39;;;;;;;3.50;2.55;;;;;;;30.09;37.21;101253.13;4897614;29;20053;-81
2023/09/07 11:28:08;;;;;;;3.05;2.70;;;;;;;30.19;37.83;101248.75;4895777;29;20056;-81
2023/09/07 11:30:37;;;;;;;3.58;3.03;;;;;;;30.36;37.92;101261.28;4895045;29;20056;-81
2023/09/07 11:33:06;;;;;;;2.65;2.45;;;;;;;30.21;36.88;101249.97;4898345;29;20079;-79
2023/09/07 11:35:35;;;;;;;3.38;2.72;;;;;;;30.24;36.97;101243.50;4898772;29;20181;-81
2023/09/07 11:38:06;;;;;;;3.22;2.47;;;;;;;30.38;36.88;101247.53;4898894;29;20053;-78
2023/09/07 11:40:35;;;;;;;5.22;2.78;;;;;;;30.39;37.04;101243.53;4898968;29;20056;-78
2023/09/07 11:43:03;;;;;;;3.38;2.65;;;;;;;30.38;37.30;101245.53;4898761;29;20064;-81
2023/09/07 11:45:32;;;;;;;3.08;2.78;;;;;;;30.15;36.55;101245.94;4898083;29;20066;-78
2023/09/07 11:48:00;;;;;;;4.35;2.78;;;;;;;30.18;37.44;101239.47;4899881;29;20052;-79
2023/09/07 11:50:32;;;;;;;2.60;2.40;;;;;;;30.13;37.57;101235.03;4898237;29;20053;-78
2023/09/07 11:53:00;;;;;;;4.88;2.50;;;;;;;30.35;37.08;101228.59;4882010;29;20052;-77
2023/09/07 11:55:32;;;;;;;3.33;3.00;;;;;;;30.41;36.48;101229.81;4897317;29;20056;-77
2023/09/07 11:58:02;;;;;;;2.92;2.33;;;;;;;30.36;38.31;101227.38;4897581;29;20072;-79
2023/09/07 12:00:31;;;;;;;3.55;2.28;;;;;;;30.57;36.74;101232.22;4897078;29;20067;-80
2023/09/07 12:02:59;;;;;;;2.60;2.40;;;;;;;30.62;36.76;101228.19;4889630;29;20400;-77
2023/09/07 12:05:28;;;;;;;3.00;2.50;;;;;;;30.44;36.36;101234.66;4892831;29;20049;-80
2023/09/07 12:08:00;;;;;;;2.72;2.47;;;;;;;30.44;36.76;101234.66;4899104;29;20063;-79
2023/09/07 12:10:29;;;;;;;2.88;2.50;;;;;;;30.48;37.01;101226.19;4896451;29;20451;-79
2023/09/07 12:12:57;;;;;;;3.08;2.65;;;;;;;30.61;36.94;101226.59;4861983;29;20068;-78
2023/09/07 12:15:26;;;;;;;2.63;2.42;;;;;;;30.57;36.28;101210.47;4897994;29;20400;-78
2023/09/07 12:17:55;;;;;;;2.95;2.58;;;;;;;30.70;36.21;101215.72;4896012;29;20052;-77
2023/09/07 12:20:24;;;;;;;5.15;2.70;;;;;;;30.67;35.88;101208.84;4897158;29;20056;-80
2023/09/07 12:22:52;;;;;;;3.97;2.58;;;;;;;30.85;35.54;101213.69;4898160;29;20049;-79
2023/09/07 12:25:21;;;;;;;3.13;2.83;;;;;;;30.97;36.30;101201.97;4888141;29;20047;-79
2023/09/07 12:27:50;;;;;;;2.28;2.08;;;;;;;30.92;35.61;101196.72;4847587;29;20045;-82
2023/09/07 12:30:23;;;;;;;3.72;2.25;;;;;;;31.04;36.14;101201.13;4893369;29;20123;-80
2023/09/07 12:32:52;;;;;;;2.97;2.67;;;;;;;30.97;35.75;101192.66;4896200;29;20075;-80
2023/09/07 12:35:21;;;;;;;2.53;2.03;;;;;;;31.24;36.11;101183.72;4890455;29;20080;-78
2023/09/07 12:37:50;;;;;;;3.13;2.83;;;;;;;31.33;35.80;101186.91;4889031;29;20452;-80
2023/09/07 12:40:18;;;;;;;6.78;2.85;;;;;;;31.18;36.09;101185.34;4879655;29;20400;-80
2023/09/07 12:42:47;;;;;;;2.45;2.25;;;;;;;31.45;35.14;101188.50;4892402;29;20411;-80
2023/09/07 12:45:15;;;;;;;4.22;2.55;;;;;;;31.44;35.51;101184.06;4894391;29;20080;-79
2023/09/07 12:47:44;;;;;;;2.70;2.42;;;;;;;31.41;34.83;101181.25;4897666;29;20049;-79
2023/09/07 12:50:12;;;;;;;3.63;2.60;;;;;;;31.64;35.46;101189.22;4895847;29;20389;-79
2023/09/07 12:52:41;;;;;;;2.92;2.72;;;;;;;31.63;35.06;101173.47;4897630;29;20118;-79
2023/09/07 12:55:09;;;;;;;3.97;2.80;;;;;;;31.66;35.33;101177.50;4897102;29;20411;-80
2023/09/07 12:57:38;;;;;;;5.50;2.40;;;;;;;31.63;35.34;101181.94;4898615;29;20056;-80
2023/09/07 13:00:07;;;;;;;2.85;2.65;;;;;;;31.52;35.93;101176.31;4882123;29;20055;-80
2023/09/07 13:02:35;;;;;;;3.10;2.28;;;;;;;31.51;35.71;101180.38;4897795;29;20075;-77
2023/09/07 13:05:07;;;;;;;3.33;2.40;;;;;;;31.70;35.06;101175.41;4897292;29;20056;-80
2023/09/07 13:07:37;;;;;;;3.72;2.70;;;;;;;31.65;35.38;101168.19;4897696;29;20055;-79
2023/09/07 13:10:06;;;;;;;3.83;2.47;;;;;;;31.60;34.47;101160.13;4898489;29;20049;-79
2023/09/07 13:12:34;;;;;;;3.65;2.55;;;;;;;31.68;34.83;101163.72;4897698;29;20056;-79
2023/09/07 13:15:04;;;;;;;3.72;2.35;;;;;;;31.68;34.69;101167.38;4897514;29;20678;-79
2023/09/07 13:17:32;;;;;;;3.80;2.47;;;;;;;31.72;35.12;101167.34;4897590;29;20048;-80
2023/09/07 13:20:01;;;;;;;2.85;2.40;;;;;;;31.57;34.25;101150.44;4896752;29;20049;-80
2023/09/07 13:22:29;;;;;;;2.58;2.38;;;;;;;31.49;34.51;101163.03;4897387;29;20056;-81
2023/09/07 13:24:57;;;;;;;2.70;2.50;;;;;;;31.56;35.51;101154.50;4895308;29;20377;-81
2023/09/07 13:27:26;;;;;;;2.35;2.20;;;;;;;31.67;35.13;101159.28;4897377;29;20049;-78
2023/09/07 13:29:54;;;;;;;4.07;2.70;;;;;;;31.83;34.87;101153.94;4897137;29;20052;-79
2023/09/07 13:32:24;;;;;;;6.93;2.50;;;;;;;31.68;35.01;101156.06;4897015;29;20053;-77
2023/09/07 13:34:53;;;;;;;2.50;2.30;;;;;;;31.59;34.21;101135.91;4896672;29;20053;-80
2023/09/07 13:37:21;;;;;;;3.13;2.40;;;;;;;31.73;34.42;101144.31;4896296;29;20060;-78
2023/09/07 13:39:50;;;;;;;3.85;2.60;;;;;;;31.38;34.27;101149.75;4896251;29;20060;-78
2023/09/07 13:42:18;;;;;;;5.40;2.78;;;;;;;31.56;34.32;101153.72;4896567;29;20074;-79
2023/09/07 13:44:47;;;;;;;2.80;2.53;;;;;;;31.55;34.88;101138.75;4895974;29;20072;-80
2023/09/07 13:47:15;;;;;;;3.60;2.60;;;;;;;31.41;34.31;101130.34;4895259;29;20044;-79
2023/09/07 13:49:44;;;;;;;2.50;2.30;;;;;;;31.52;34.55;101128.25;4896559;29;20056;-77
2023/09/07 13:52:13;;;;;;;3.03;2.72;;;;;;;31.50;34.15;101139.19;4895527;29;20075;-78
2023/09/07 13:54:42;;;;;;;3.58;2.60;;;;;;;31.48;34.49;101133.16;4896305;29;20063;-79
2023/09/07 13:57:11;;;;;;;5.55;2.90;;;;;;;31.17;34.61;101132.88;4895787;29;20049;-79
2023/09/07 13:59:39;;;;;;;2.90;2.58;;;;;;;31.27;34.25;101143.31;4880098;29;20056;-80
2023/09/07 14:02:08;;;;;;;2.05;1.95;;;;;;;31.36;35.17;101138.03;4896263;29;20063;-80
2023/09/07 14:04:38;;;;;;;2.63;2.30;;;;;;;31.23;34.14;101134.06;4896029;29;20048;-80
2023/09/07 14:07:07;;;;;;;3.92;2.53;;;;;;;31.40;34.31;101131.56;4896159;29;20072;-81
2023/09/07 14:09:36;;;;;;;3.53;3.22;;;;;;;31.34;34.44;101142.50;4896264;29;20048;-80
2023/09/07 14:12:04;;;;;;;2.80;2.60;;;;;;;31.21;34.20;101139.28;4876536;29;20041;-80
2023/09/07 14:14:33;;;;;;;3.17;2.88;;;;;;;31.22;34.29;101140.88;4870615;29;20057;-80
2023/09/07 14:17:02;;;;;;;3.35;2.65;;;;;;;31.16;33.54;101132.03;4858946;29;20400;-79
2023/09/07 14:19:31;;;;;;;2.70;2.30;;;;;;;31.08;33.36;101130.47;4858686;29;20057;-80
2023/09/07 14:22:00;;;;;;;2.38;2.17;;;;;;;30.97;33.64;101133.31;4859566;29;20080;-80
2023/09/07 14:24:28;;;;;;;4.55;2.47;;;;;;;31.17;34.08;101136.47;4860140;29;20084;-79
2023/09/07 14:26:56;;;;;;;6.50;2.40;;;;;;;31.04;33.95;101127.63;4859678;29;20046;-79
2023/09/07 14:29:26;;;;;;;2.97;2.65;;;;;;;30.94;34.33;101125.69;4858937;29;20058;-80
2023/09/07 14:31:55;;;;;;;4.68;2.70;;;;;;;31.13;34.41;101127.19;4858462;29;20050;-78
2023/09/07 14:34:23;;;;;;;3.53;2.88;;;;;;;31.10;33.65;101120.38;4858947;29;20489;-79
2023/09/07 14:36:52;;;;;;;2.83;2.50;;;;;;;31.13;33.33;101124.38;4862864;29;20049;-79
2023/09/07 14:39:23;;;;;;;3.15;2.85;;;;;;;30.93;33.62;101121.25;4876611;29;20485;-78
2023/09/07 14:41:53;;;;;;;3.35;2.72;;;;;;;30.49;33.81;101126.16;4876961;29;20049;-79
2023/09/07 14:44:41;;;;;;;3.88;2.63;;;;;;;30.54;33.79;101117.28;4877203;29;20385;-79
2023/09/07 14:47:11;;;;;;;2.90;2.60;;;;;;;30.46;34.55;101119.31;4858230;29;20061;-80
2023/09/07 14:49:39;;;;;;;2.50;2.30;;;;;;;30.35;32.92;101124.16;4877048;29;20057;-79
2023/09/07 14:52:08;;;;;;;2.90;2.60;;;;;;;30.20;33.65;101106.44;4876365;29;20171;-80
2023/09/07 14:54:36;;;;;;;4.90;2.60;;;;;;;30.23;33.42;101108.44;4877155;29;20068;-81
2023/09/07 14:57:05;;;;;;;2.95;2.30;;;;;;;30.12;33.90;101112.09;4879124;29;20061;-81
2023/09/07 14:59:33;;;;;;;2.85;2.15;;;;;;;30.17;34.09;101102.41;4881498;29;20095;-79
2023/09/07 15:02:02;;;;;;;2.58;2.38;;;;;;;30.21;33.98;101114.50;4880437;29;20057;-80
2023/09/07 15:04:33;;;;;;;4.05;2.72;;;;;;;29.88;34.08;101110.81;4879728;29;20068;-80
2023/09/07 15:07:02;;;;;;;2.88;2.53;;;;;;;29.98;34.14;101118.50;4880756;29;20049;-79
2023/09/07 15:09:31;;;;;;;5.72;2.90;;;;;;;29.85;34.90;101117.25;4881507;29;20492;-80
2023/09/07 15:11:59;;;;;;;4.93;2.58;;;;;;;29.67;34.15;101111.59;4886442;29;20053;-80
2023/09/07 15:14:28;;;;;;;4.20;2.55;;;;;;;29.82;34.43;101115.25;4900017;29;20389;-81
2023/09/07 15:16:56;;;;;;;2.92;2.55;;;;;;;29.75;34.53;101114.03;4900342;29;20400;-81
2023/09/07 15:19:24;;;;;;;3.00;2.65;;;;;;;29.74;34.68;101120.06;4882753;29;20060;-80
2023/09/07 15:21:53;;;;;;;3.40;2.53;;;;;;;29.86;34.77;101113.25;4908637;29;20067;-80
2023/09/07 15:24:22;;;;;;;2.60;2.10;;;;;;;29.57;34.42;101104.75;4903143;29;20074;-81
2023/09/07 15:26:50;;;;;;;2.78;2.55;;;;;;;29.80;34.27;101112.03;4899511;29;20072;-80
2023/09/07 15:29:19;;;;;;;3.75;2.38;;;;;;;29.81;35.19;101108.78;4899139;29;20048;-80
2023/09/07 15:31:47;;;;;;;2.15;2.00;;;;;;;29.72;34.19;101114.03;4900081;29;20056;-79
2023/09/07 15:34:15;;;;;;;5.20;2.70;;;;;;;29.74;34.84;101114.44;4900076;29;20052;-80
2023/09/07 15:36:44;;;;;;;3.97;2.28;;;;;;;29.52;34.96;101128.50;4883639;29;20048;-81
2023/09/07 15:39:12;;;;;;;3.47;2.25;;;;;;;29.56;35.18;101117.22;4900745;29;20059;-80
2023/09/07 15:41:41;;;;;;;2.33;2.10;;;;;;;29.48;34.46;101124.84;4882491;29;20403;-80
2023/09/07 15:44:09;;;;;;;5.00;2.90;;;;;;;29.46;35.10;101122.41;4898441;29;20072;-80
2023/09/07 15:46:38;;;;;;;3.58;2.25;;;;;;;29.46;34.67;101122.41;4881481;29;20062;-80
2023/09/07 15:49:07;;;;;;;2.83;2.55;;;;;;;29.48;34.94;101124.84;4899273;29;20395;-79
2023/09/07 15:51:35;;;;;;;2.97;2.10;;;;;;;29.52;34.41;101122.03;4899029;29;20423;-80
2023/09/07 15:54:04;;;;;;;4.40;2.47;;;;;;;29.48;34.71;101136.91;4898357;29;20435;-80
2023/09/07 15:56:33;;;;;;;3.22;2.78;;;;;;;29.52;35.21;101133.31;4897546;29;20403;-79
2023/09/07 15:59:01;;;;;;;3.50;2.80;;;;;;;29.56;34.63;101125.69;4866768;29;20062;-78
2023/09/07 16:01:30;;;;;;;4.05;2.47;;;;;;;29.43;34.53;101133.66;4898914;29;20052;-80
2023/09/07 16:03:58;;;;;;;2.83;2.40;;;;;;;29.30;34.91;101131.22;4898864;29;20052;-80
2023/09/07 16:06:27;;;;;;;2.75;2.50;;;;;;;29.38;35.58;101137.69;4898832;29;20056;-80
2023/09/07 16:08:57;;;;;;;5.13;2.65;;;;;;;29.25;35.92;101131.59;4898935;29;20095;-79
2023/09/07 16:11:25;;;;;;;4.10;2.90;;;;;;;29.28;35.66;101127.16;4898835;29;20048;-80
2023/09/07 16:13:54;;;;;;;2.97;2.15;;;;;;;29.34;35.45;101125.56;4897867;29;20048;-79
2023/09/07 16:16:22;;;;;;;3.85;2.50;;;;;;;29.32;35.60;101116.72;4897461;29;20056;-77
2023/09/07 16:18:51;;;;;;;3.55;2.80;;;;;;;29.22;35.81;101124.72;4898580;29;20083;-80
2023/09/07 16:21:20;;;;;;;6.80;2.53;;;;;;;29.19;35.66;101125.53;4881193;29;20068;-76
2023/09/07 16:23:50;;;;;;;2.70;2.50;;;;;;;29.23;35.95;101115.06;4898709;29;20049;-79
2023/09/07 16:26:19;;;;;;;3.00;2.65;;;;;;;29.14;36.21;101127.91;4881421;29;20071;-80
2023/09/07 16:28:48;;;;;;;4.63;4.13;;;;;;;29.13;36.64;101115.84;4899204;29;20137;-81
2023/09/07 16:31:17;;;;;;;3.70;2.60;;;;;;;29.04;36.97;101112.59;4898764;29;20071;-81
2023/09/07 16:33:45;;;;;;;4.22;2.72;;;;;;;29.03;36.25;101125.84;4898681;29;20048;-80
2023/09/07 16:36:14;;;;;;;3.00;2.53;;;;;;;29.09;36.88;101127.09;4880670;29;20052;-80
2023/09/07 16:38:43;;;;;;;2.63;2.42;;;;;;;29.01;36.31;101111.34;4898384;29;20053;-80
2023/09/07 16:41:11;;;;;;;3.45;3.03;;;;;;;28.95;37.06;101110.13;4898849;29;20057;-80
2023/09/07 16:43:39;;;;;;;4.05;2.40;;;;;;;28.97;37.31;101118.97;4899616;29;20048;-80
2023/09/07 16:46:08;;;;;;;2.63;2.40;;;;;;;29.02;36.85;101115.78;4898651;29;20052;-80
2023/09/07 16:48:36;;;;;;;2.17;1.98;;;;;;;28.93;38.18;101106.91;4898417;29;20052;-80
2023/09/07 16:51:05;;;;;;;2.85;2.60;;;;;;;28.90;37.40;101125.41;4898732;29;20068;-80
2023/09/07 16:53:34;;;;;;;3.72;2.63;;;;;;;28.85;37.93;101117.28;4880977;29;20668;-77
2023/09/07 16:56:03;;;;;;;4.82;2.72;;;;;;;28.75;37.92;101120.84;4897438;29;20138;-80
2023/09/07 16:58:32;;;;;;;5.13;2.80;;;;;;;28.73;37.74;101112.78;4879811;29;20056;-79
2023/09/07 17:01:05;;;;;;;3.97;2.67;;;;;;;28.80;38.36;101123.28;4898063;29;20482;-78
2023/09/07 17:03:33;;;;;;;3.05;2.35;;;;;;;28.82;38.25;101127.34;4897849;29;20053;-79
2023/09/07 17:06:02;;;;;;;3.58;2.47;;;;;;;28.81;37.99;101131.34;4897683;29;20373;-80
2023/09/07 17:08:30;;;;;;;3.42;2.50;;;;;;;28.61;38.25;101127.19;4897033;29;20436;-80
2023/09/07 17:11:00;;;;;;;4.75;2.75;;;;;;;28.66;38.55;101126.81;4897694;29;20052;-80
2023/09/07 17:13:29;;;;;;;5.28;2.30;;;;;;;28.65;38.99;101126.03;4896479;29;20060;-80
2023/09/07 17:15:57;;;;;;;4.88;2.63;;;;;;;28.65;38.32;101126.03;4897276;29;20070;-81
2023/09/07 17:18:26;;;;;;;4.90;2.90;;;;;;;28.65;38.71;101126.03;4896736;29;20052;-80
2023/09/07 17:20:55;;;;;;;4.28;2.70;;;;;;;28.51;38.92;101131.56;4897089;29;20045;-80
2023/09/07 17:23:23;;;;;;;3.28;2.55;;;;;;;28.43;39.01;101131.50;4881247;29;20052;-80
2023/09/07 17:25:52;;;;;;;2.42;2.22;;;;;;;28.41;38.66;101138.72;4897387;29;20052;-79
2023/09/07 17:28:20;;;;;;;4.22;2.88;;;;;;;28.51;38.74;101135.19;4897754;29;20056;-80
2023/09/07 17:30:49;;;;;;;7.85;2.80;;;;;;;28.53;38.69;101138.41;4896798;29;20063;-78
2023/09/07 17:33:17;;;;;;;3.10;2.80;;;;;;;28.26;39.20;101144.22;4897992;29;20053;-81
2023/09/07 17:35:46;;;;;;;4.18;3.20;;;;;;;28.21;39.73;101133.31;4897891;29;20056;-81
2023/09/07 17:38:15;;;;;;;3.25;2.80;;;;;;;28.16;39.35;101150.56;4898269;29;20075;-81
2023/09/07 17:40:43;;;;;;;4.75;2.38;;;;;;;28.17;38.91;101147.38;4897445;29;20052;-81
2023/09/07 17:43:11;;;;;;;5.25;2.65;;;;;;;28.26;39.11;101149.06;4898302;29;20049;-80
2023/09/07 17:45:39;;;;;;;6.50;2.95;;;;;;;28.10;38.77;101147.28;4898043;29;20048;-81
2023/09/07 17:48:08;;;;;;;5.97;2.70;;;;;;;28.15;38.68;101146.91;4897928;29;20056;-80
2023/09/07 17:50:37;;;;;;;6.90;3.30;;;;;;;27.96;38.52;101155.59;4897059;29;20056;-80
2023/09/07 17:53:05;;;;;;;3.33;2.60;;;;;;;28.07;39.16;101158.50;4898279;29;20041;-83
2023/09/07 17:55:34;;;;;;;6.57;2.92;;;;;;;28.00;39.28;101160.06;4897654;29;20079;-83
2023/09/07 17:58:02;;;;;;;3.03;2.42;;;;;;;28.14;38.93;101161.38;4901090;29;20048;-81
2023/09/07 18:00:32;;;;;;;3.58;3.00;;;;;;;28.00;39.12;101164.88;4899500;29;20080;-83
2023/09/07 18:03:00;;;;;;;3.42;2.88;;;;;;;27.90;39.43;101164.38;4897419;29;20064;-82
2023/09/07 18:05:29;;;;;;;5.78;3.05;;;;;;;27.72;40.23;101177.44;4896372;29;20484;-83
2023/09/07 18:07:57;;;;;;;4.35;2.67;;;;;;;27.85;40.18;101178.00;4896744;29;20045;-83
2023/09/07 18:10:25;;;;;;;4.88;2.90;;;;;;;27.67;40.85;101180.59;4896647;29;20411;-83
2023/09/07 18:12:54;;;;;;;7.32;3.10;;;;;;;27.48;41.17;101179.53;4895362;29;20413;-84
2023/09/07 18:15:22;;;;;;;3.78;3.00;;;;;;;27.61;41.17;101180.94;4894487;29;20048;-82
2023/09/07 18:17:51;;;;;;;6.38;3.33;;;;;;;27.48;41.04;101185.16;4884730;29;20534;-82
2023/09/07 18:20:19;;;;;;;5.03;2.90;;;;;;;27.56;41.67;101184.06;4896044;29;20380;-82
2023/09/07 18:22:47;;;;;;;4.75;3.00;;;;;;;27.58;41.87;101190.16;4895490;29;20047;-82
2023/09/07 18:25:16;;;;;;;3.05;2.75;;;;;;;27.58;42.52;101189.31;4895461;29;20052;-82
2023/09/07 18:27:44;;;;;;;4.78;3.10;;;;;;;27.41;43.03;101188.69;4896211;29;20047;-82
2023/09/07 18:30:12;;;;;;;5.82;3.28;;;;;;;27.42;42.96;101193.09;4879042;29;20056;-81
2023/09/07 18:32:41;;;;;;;3.45;2.90;;;;;;;27.46;43.25;101198.81;4883085;29;20052;-82
2023/09/07 18:35:09;;;;;;;6.47;3.05;;;;;;;27.35;43.56;101207.91;4895735;29;20048;-82
2023/09/07 18:37:38;;;;;;;3.72;3.08;;;;;;;27.22;43.78;101212.13;4896285;29;20059;-82
2023/09/07 18:40:07;;;;;;;7.40;3.22;;;;;;;27.27;44.05;101214.59;4896212;29;20064;-80
2023/09/07 18:42:37;;;;;;;6.97;3.30;;;;;;;27.32;43.77;101222.69;4874923;29;20049;-82
2023/09/07 18:45:06;;;;;;;6.55;3.22;;;;;;;27.17;44.14;101226.50;4877366;29;20049;-82
2023/09/07 18:47:37;;;;;;;4.68;3.30;;;;;;;27.14;44.64;101221.63;4878436;29;20057;-83
2023/09/07 18:50:06;;;;;;;6.90;3.30;;;;;;;26.98;44.94;101219.00;4893092;29;20063;-83
2023/09/07 18:52:38;;;;;;;11.18;4.63;;;;;;;26.96;44.68;101227.81;4896658;29;20048;-83
2023/09/07 18:55:06;;;;;;;5.57;3.38;;;;;;;26.84;45.17;101228.81;4895402;29;20051;-82
2023/09/07 18:57:35;;;;;;;4.05;3.38;;;;;;;26.96;44.86;101233.41;4879761;29;20055;-82
2023/09/07 19:00:07;;;;;;;7.47;3.58;;;;;;;26.88;45.78;101226.84;4896538;29;20049;-82
2023/09/07 19:02:36;;;;;;;3.63;3.22;;;;;;;26.77;45.99;101226.69;4896805;29;20052;-81
2023/09/07 19:05:05;;;;;;;4.72;3.15;;;;;;;26.87;45.48;101221.63;4894956;29;20056;-82
2023/09/07 19:07:34;;;;;;;4.68;3.60;;;;;;;26.92;48.67;101224.13;4895942;29;20057;-78
2023/09/07 19:10:03;;;;;;;10.32;4.25;;;;;;;26.95;44.97;101227.00;4896190;29;20051;-82
2023/09/07 19:12:33;;;;;;;12.20;4.05;;;;;;;26.95;45.96;101220.56;4896079;29;20048;-82
2023/09/07 19:15:02;;;;;;;5.95;3.90;;;;;;;26.93;46.22;101228.56;4881996;29;20053;-82
2023/09/07 19:17:31;;;;;;;6.57;3.53;;;;;;;26.93;45.91;101228.56;4876669;29;20540;-82
2023/09/07 19:20:00;;;;;;;7.68;3.30;;;;;;;26.90;45.70;101235.72;4873574;29;20432;-82
2023/09/07 19:22:28;;;;;;;4.90;2.97;;;;;;;26.82;45.55;101231.16;4895872;29;20068;-81
2023/09/07 19:24:56;;;;;;;6.78;3.00;;;;;;;26.88;45.96;101234.47;4895586;29;20416;-81
2023/09/07 19:27:25;;;;;;;4.05;3.40;;;;;;;26.94;46.20;101235.81;4895311;29;20514;-82
2023/09/07 19:29:55;;;;;;;3.92;2.80;;;;;;;26.95;46.32;101240.22;4895567;29;20403;-81
2023/09/07 19:32:24;;;;;;;4.70;3.20;;;;;;;26.86;46.08;101240.47;4895726;29;20052;-81
2023/09/07 19:34:53;;;;;;;6.95;3.45;;;;;;;26.88;46.50;101240.88;4879008;29;20068;-82
2023/09/07 19:37:21;;;;;;;3.90;3.08;;;;;;;26.68;46.00;101240.16;4886135;29;20369;-82
2023/09/07 19:39:50;;;;;;;6.97;3.38;;;;;;;26.68;46.28;101240.97;4891098;29;20049;-81
2023/09/07 19:42:18;;;;;;;6.53;2.90;;;;;;;26.60;46.98;101241.22;4878089;29;20045;-82
2023/09/07 19:44:46;;;;;;;6.70;3.58;;;;;;;26.58;47.48;101252.03;4880415;29;20045;-81